Time;durP1;ratioP1;P1;durP2;ratioP2;P2;SDS_P1;SDS_P2;PMS_P1;PMS_P2;Temp;Humidity;BMP_temperature;BMP_pressure;BME280_temperature;BME280_humidity;BME280_pressure;Samples;Min_cycle;Max_cycle;Signal;HPM_P1;HPM_P2
2023/05/14 00:00:42;;;;;;;17.42;10.82;;;12.80;99.90;;;;;;5046592;28;20090;-69
2023/05/14 00:03:08;;;;;;;17.25;10.80;;;12.80;99.90;;;;;;5046835;28;20041;-61
2023/05/14 00:05:34;;;;;;;17.15;11.00;;;12.80;99.90;;;;;;5047151;28;20033;-70
2023/05/14 00:07:59;;;;;;;16.95;11.40;;;12.80;99.90;;;;;;5047452;28;20060;-69
2023/05/14 00:10:26;;;;;;;16.00;11.00;;;12.80;99.90;;;;;;5028972;28;20037;-65
2023/05/14 00:12:52;;;;;;;16.73;10.75;;;12.80;99.90;;;;;;5047167;28;20043;-69
2023/05/14 00:15:18;;;;;;;14.48;11.00;;;12.70;99.90;;;;;;5047262;28;20384;-64
2023/05/14 00:17:44;;;;;;;19.75;10.88;;;12.70;99.90;;;;;;5046777;28;20041;-69
2023/05/14 00:20:11;;;;;;;14.93;11.20;;;12.70;99.90;;;;;;5046598;28;20039;-69
2023/05/14 00:22:38;;;;;;;18.35;10.82;;;12.60;99.90;;;;;;5047421;28;20045;-63
2023/05/14 00:25:05;;;;;;;16.38;10.52;;;12.60;99.90;;;;;;5046389;28;20643;-61
2023/05/14 00:27:30;;;;;;;20.42;11.02;;;12.60;99.90;;;;;;5047445;28;20047;-59
2023/05/14 00:29:56;;;;;;;16.23;10.10;;;12.60;99.90;;;;;;5047213;28;20484;-62
2023/05/14 00:32:22;;;;;;;18.00;10.95;;;12.60;99.90;;;;;;5046658;28;20166;-52
2023/05/14 00:34:48;;;;;;;14.88;10.32;;;12.60;99.90;;;;;;5045996;28;20041;-64
2023/05/14 00:37:14;;;;;;;13.02;10.45;;;12.60;99.90;;;;;;5047221;28;20047;-67
2023/05/14 00:39:39;;;;;;;19.63;10.55;;;12.60;99.90;;;;;;5047021;28;20096;-65
2023/05/14 00:42:05;;;;;;;19.40;10.00;;;12.60;99.90;;;;;;5045814;28;20615;-67
2023/05/14 00:44:31;;;;;;;21.23;10.65;;;12.70;99.90;;;;;;5047261;28;20045;-68
2023/05/14 00:46:57;;;;;;;15.95;10.68;;;12.70;99.90;;;;;;5046694;28;20037;-60
2023/05/14 00:49:24;;;;;;;15.75;10.82;;;12.60;99.90;;;;;;5045300;28;20401;-67
2023/05/14 00:51:50;;;;;;;16.27;10.20;;;12.60;99.90;;;;;;5046985;28;20044;-69
2023/05/14 00:54:16;;;;;;;15.27;10.38;;;12.60;99.90;;;;;;5046956;28;20044;-68
2023/05/14 00:56:44;;;;;;;18.35;10.20;;;12.60;99.90;;;;;;5046513;28;20063;-63
2023/05/14 00:59:10;;;;;;;17.35;9.60;;;12.60;99.90;;;;;;5047219;28;20040;-64
2023/05/14 01:01:36;;;;;;;14.75;10.43;;;12.60;99.90;;;;;;5046611;28;20388;-59
2023/05/14 01:04:02;;;;;;;16.65;10.73;;;12.60;99.90;;;;;;5046317;28;20053;-59
2023/05/14 01:06:51;;;;;;;16.88;10.68;;;12.60;99.90;;;;;;5044499;28;20060;-62
2023/05/14 01:09:39;;;;;;;15.20;10.40;;;12.60;99.90;;;;;;5043592;28;20111;-69
2023/05/14 01:12:32;;;;;;;13.60;10.38;;;12.60;99.90;;;;;;5043523;28;20045;-61
2023/05/14 01:15:08;;;;;;;17.05;10.65;;;12.60;99.90;;;;;;5024582;28;20037;-58
2023/05/14 01:17:40;;;;;;;17.77;10.65;;;12.50;99.90;;;;;;5043896;28;20171;-65
2023/05/14 01:20:06;;;;;;;18.08;11.00;;;12.50;99.90;;;;;;5042181;28;20517;-64
2023/05/14 01:22:32;;;;;;;19.08;10.90;;;12.50;99.90;;;;;;5043436;28;20041;-69
2023/05/14 01:24:57;;;;;;;16.42;9.95;;;12.50;99.90;;;;;;5043603;28;20040;-62
2023/05/14 01:27:26;;;;;;;23.15;10.82;;;12.50;99.90;;;;;;5043615;28;20049;-65
2023/05/14 01:30:17;;;;;;;15.02;10.48;;;12.50;99.90;;;;;;5043334;28;20128;-62
2023/05/14 01:32:47;;;;;;;17.67;10.32;;;12.50;99.90;;;;;;5042264;28;20052;-63
2023/05/14 01:35:14;;;;;;;17.60;10.55;;;12.50;99.90;;;;;;5043061;28;20056;-61
2023/05/14 01:37:40;;;;;;;17.15;10.95;;;12.40;99.90;;;;;;5043311;28;20033;-62
2023/05/14 01:40:08;;;;;;;15.43;10.50;;;12.40;99.90;;;;;;5042849;28;20405;-59
2023/05/14 01:42:34;;;;;;;19.98;11.05;;;12.40;99.90;;;;;;5042917;28;20063;-68
2023/05/14 01:45:01;;;;;;;16.23;10.25;;;12.30;99.90;;;;;;5025329;28;20369;-68
2023/05/14 01:47:26;;;;;;;17.60;10.98;;;12.30;99.90;;;;;;5042912;28;20388;-68
2023/05/14 01:49:52;;;;;;;20.40;11.55;;;12.30;99.90;;;;;;5041682;28;20124;-68
2023/05/14 01:52:20;;;;;;;17.73;11.55;;;12.40;99.90;;;;;;5043103;28;20098;-67
2023/05/14 01:54:46;;;;;;;17.92;11.52;;;12.40;99.90;;;;;;5042690;28;20087;-68
2023/05/14 01:57:12;;;;;;;19.35;11.30;;;12.30;99.90;;;;;;5042429;28;20045;-66
2023/05/14 01:59:37;;;;;;;18.83;12.27;;;12.30;99.90;;;;;;5042771;28;20039;-70
2023/05/14 02:02:03;;;;;;;17.98;11.10;;;12.20;99.90;;;;;;5042627;28;20048;-65
2023/05/14 02:04:29;;;;;;;18.02;11.43;;;12.20;99.90;;;;;;5041681;28;20499;-52
2023/05/14 02:06:54;;;;;;;19.80;11.93;;;12.20;99.90;;;;;;5024661;28;20132;-64
2023/05/14 02:09:20;;;;;;;22.75;12.63;;;12.20;99.90;;;;;;5042380;28;20478;-65
2023/05/14 02:11:46;;;;;;;19.52;12.32;;;12.20;99.90;;;;;;5042374;28;20111;-62
2023/05/14 02:14:11;;;;;;;20.77;12.38;;;12.10;99.90;;;;;;5041864;28;20053;-62
2023/05/14 02:16:37;;;;;;;19.30;12.40;;;12.10;99.90;;;;;;5042613;28;20037;-62
2023/05/14 02:19:03;;;;;;;21.52;12.27;;;12.10;99.90;;;;;;5042062;28;20052;-59
2023/05/14 02:21:28;;;;;;;21.23;11.95;;;12.00;99.90;;;;;;5041527;28;20049;-59
2023/05/14 02:23:54;;;;;;;18.08;12.98;;;12.10;99.90;;;;;;5024236;28;20330;-59
2023/05/14 02:26:21;;;;;;;20.52;12.52;;;12.00;99.90;;;;;;5042316;28;20424;-62
2023/05/14 02:28:46;;;;;;;21.25;12.68;;;12.00;99.90;;;;;;5042254;28;20037;-59
2023/05/14 02:31:13;;;;;;;21.25;13.15;;;12.00;99.90;;;;;;5041606;28;20607;-61
2023/05/14 02:33:39;;;;;;;17.85;11.55;;;12.00;99.90;;;;;;5041862;28;20052;-58
2023/05/14 02:36:04;;;;;;;14.63;12.43;;;12.00;99.90;;;;;;5042488;28;20531;-66
2023/05/14 02:38:30;;;;;;;17.77;12.70;;;12.00;99.90;;;;;;5041448;28;20539;-69
2023/05/14 02:40:56;;;;;;;16.75;13.15;;;12.00;99.90;;;;;;5041893;28;20063;-65
2023/05/14 02:43:21;;;;;;;22.52;12.27;;;12.00;99.90;;;;;;5041415;28;20053;-68
2023/05/14 02:45:47;;;;;;;18.67;12.77;;;12.00;99.90;;;;;;5041186;28;20474;-65
2023/05/14 02:48:13;;;;;;;21.90;13.30;;;11.90;99.90;;;;;;5041335;28;20099;-66
2023/05/14 02:50:38;;;;;;;19.27;13.32;;;11.70;99.90;;;;;;5041972;28;20037;-63
2023/05/14 02:53:04;;;;;;;19.63;13.13;;;11.90;99.90;;;;;;5041500;28;20033;-68
2023/05/14 02:55:30;;;;;;;20.73;14.30;;;11.80;99.90;;;;;;5040818;28;20118;-66
2023/05/14 02:57:55;;;;;;;20.92;14.43;;;11.80;99.90;;;;;;5041605;28;20452;-68
2023/05/14 03:00:21;;;;;;;23.55;13.85;;;11.70;99.90;;;;;;5041622;28;20045;-69
2023/05/14 03:02:47;;;;;;;24.90;14.32;;;11.70;99.90;;;;;;5040049;28;20037;-65
2023/05/14 03:05:12;;;;;;;18.25;14.07;;;11.70;99.90;;;;;;5041313;28;20120;-68
2023/05/14 03:07:38;;;;;;;21.75;14.65;;;11.70;99.90;;;;;;5041583;28;20053;-67
2023/05/14 03:10:04;;;;;;;18.38;13.90;;;11.70;99.90;;;;;;5041358;28;20086;-67
2023/05/14 03:12:30;;;;;;;19.75;13.70;;;11.70;99.90;;;;;;5006958;28;20084;-67
2023/05/14 03:14:56;;;;;;;23.75;13.93;;;11.70;99.90;;;;;;5041592;28;20083;-64
2023/05/14 03:17:22;;;;;;;23.52;14.75;;;11.80;99.90;;;;;;5041268;28;20057;-61
2023/05/14 03:19:48;;;;;;;27.63;14.38;;;11.70;99.90;;;;;;5039925;28;20103;-64
2023/05/14 03:22:14;;;;;;;21.52;14.48;;;11.60;99.90;;;;;;5041337;28;20044;-58
2023/05/14 03:24:40;;;;;;;25.45;14.98;;;11.60;99.90;;;;;;5041422;28;20495;-56
2023/05/14 03:27:06;;;;;;;21.50;14.55;;;11.60;99.90;;;;;;5040925;28;20471;-60
2023/05/14 03:29:31;;;;;;;21.88;15.15;;;11.60;99.90;;;;;;5040463;28;20247;-61
2023/05/14 03:31:57;;;;;;;20.35;14.68;;;11.60;99.90;;;;;;5040980;28;20203;-61
2023/05/14 03:34:23;;;;;;;19.15;14.73;;;11.60;99.90;;;;;;5040623;28;20049;-63
2023/05/14 03:36:48;;;;;;;18.05;14.48;;;11.60;99.90;;;;;;5040614;28;20492;-61
2023/05/14 03:39:18;;;;;;;24.42;15.23;;;11.60;99.90;;;;;;5041323;28;20037;-58
2023/05/14 03:41:45;;;;;;;24.88;14.95;;;11.60;99.90;;;;;;5040952;28;20103;-67
2023/05/14 03:44:11;;;;;;;24.05;15.30;;;11.60;99.90;;;;;;5040077;28;20140;-66
2023/05/14 03:46:36;;;;;;;22.58;15.60;;;11.50;99.90;;;;;;5040404;28;20045;-68
2023/05/14 03:49:02;;;;;;;24.40;15.75;;;11.50;99.90;;;;;;5040072;28;20321;-69
2023/05/14 03:51:28;;;;;;;23.77;16.02;;;11.50;99.90;;;;;;5040189;28;20083;-66
2023/05/14 03:53:54;;;;;;;26.70;15.95;;;11.50;99.90;;;;;;5040990;28;20603;-70
2023/05/14 03:56:21;;;;;;;24.85;15.98;;;11.50;99.90;;;;;;5041122;28;20045;-61
2023/05/14 03:58:47;;;;;;;25.92;15.80;;;11.50;99.90;;;;;;5039849;28;20095;-65
2023/05/14 04:01:12;;;;;;;21.42;15.15;;;11.50;99.90;;;;;;5041080;28;20041;-59
2023/05/14 04:03:38;;;;;;;24.90;15.65;;;11.50;99.90;;;;;;5022272;28;20080;-61
2023/05/14 04:06:04;;;;;;;21.85;14.90;;;11.50;99.90;;;;;;5040753;28;20049;-58
2023/05/14 04:08:30;;;;;;;23.90;16.15;;;11.50;99.90;;;;;;5039932;28;20229;-61
2023/05/14 04:10:55;;;;;;;24.42;16.13;;;11.50;99.90;;;;;;5040748;28;20052;-63
2023/05/14 04:13:21;;;;;;;20.42;15.10;;;11.50;99.90;;;;;;5040645;28;20570;-64
2023/05/14 04:15:47;;;;;;;24.40;16.13;;;11.50;99.90;;;;;;5040343;28;20041;-62
2023/05/14 04:18:12;;;;;;;24.42;16.48;;;11.50;99.90;;;;;;5040338;28;20056;-65
2023/05/14 04:20:39;;;;;;;25.73;16.38;;;11.60;99.90;;;;;;5040545;28;20120;-62
2023/05/14 04:23:05;;;;;;;21.38;16.00;;;11.70;99.90;;;;;;5040371;28;20052;-54
2023/05/14 04:25:30;;;;;;;19.60;16.33;;;11.70;99.90;;;;;;5022515;28;20563;-68
2023/05/14 04:27:57;;;;;;;26.10;15.85;;;11.70;99.90;;;;;;5040411;28;20049;-70
2023/05/14 04:30:23;;;;;;;27.80;16.40;;;11.80;99.90;;;;;;5040603;28;20041;-64
2023/05/14 04:32:48;;;;;;;24.10;15.98;;;11.80;99.90;;;;;;5039174;28;20385;-68
2023/05/14 04:35:14;;;;;;;22.23;16.48;;;11.80;99.90;;;;;;5040691;28;20040;-67
2023/05/14 04:37:40;;;;;;;24.95;16.77;;;11.80;99.90;;;;;;5040602;28;20120;-67
2023/05/14 04:40:07;;;;;;;22.88;16.63;;;11.90;99.90;;;;;;5039838;28;20049;-69
2023/05/14 04:42:33;;;;;;;25.58;16.60;;;11.90;99.90;;;;;;5041384;28;20037;-71
2023/05/14 04:44:58;;;;;;;22.63;16.13;;;11.90;99.90;;;;;;5044104;28;20515;-69
2023/05/14 04:47:25;;;;;;;24.05;16.00;;;11.90;99.90;;;;;;5043176;28;20483;-62
2023/05/14 04:49:50;;;;;;;22.55;16.25;;;12.00;99.90;;;;;;5043873;28;20059;-63
2023/05/14 04:52:16;;;;;;;24.45;16.10;;;12.10;99.90;;;;;;5044152;28;20049;-56
2023/05/14 04:54:42;;;;;;;22.23;15.98;;;12.20;99.90;;;;;;5044115;28;20037;-63
2023/05/14 04:57:07;;;;;;;24.23;16.23;;;12.30;99.90;;;;;;5043068;28;20049;-62
2023/05/14 04:59:33;;;;;;;20.65;15.57;;;12.40;99.90;;;;;;5044109;28;20037;-57
2023/05/14 05:01:59;;;;;;;25.00;16.10;;;12.60;99.90;;;;;;5025895;28;20567;-60
2023/05/14 05:04:25;;;;;;;23.60;16.08;;;12.80;99.90;;;;;;5042948;28;20179;-63
2023/05/14 05:06:50;;;;;;;19.02;14.75;;;13.10;99.90;;;;;;5037620;28;20049;-62
2023/05/14 05:09:17;;;;;;;21.35;14.70;;;13.40;99.90;;;;;;5023755;28;20126;-60
2023/05/14 05:11:43;;;;;;;19.23;13.65;;;13.50;99.90;;;;;;5023978;28;20159;-63
2023/05/14 05:14:09;;;;;;;17.90;13.68;;;13.50;99.90;;;;;;5023183;28;20128;-62
2023/05/14 05:16:34;;;;;;;25.90;14.65;;;13.50;99.90;;;;;;5024063;28;20428;-69
2023/05/14 05:19:00;;;;;;;17.92;13.18;;;13.50;99.90;;;;;;5022923;28;20394;-68
2023/05/14 05:21:26;;;;;;;20.17;14.02;;;13.70;99.90;;;;;;5023055;28;20333;-67
2023/05/14 05:23:52;;;;;;;17.60;13.45;;;13.70;99.90;;;;;;5005469;28;20056;-58
2023/05/14 05:26:17;;;;;;;16.60;12.90;;;13.80;99.90;;;;;;5023551;28;20171;-68
2023/05/14 05:28:43;;;;;;;21.63;12.60;;;13.70;99.90;;;;;;5023067;28;20070;-69
2023/05/14 05:31:08;;;;;;;18.67;12.10;;;13.70;99.90;;;;;;5023583;28;20056;-56
2023/05/14 05:33:34;;;;;;;17.70;12.32;;;13.60;99.90;;;;;;5022508;28;20046;-67
2023/05/14 05:36:00;;;;;;;21.00;12.07;;;13.60;99.90;;;;;;5023371;28;20076;-70
2023/05/14 05:38:26;;;;;;;18.90;11.80;;;13.50;99.90;;;;;;5022442;28;20045;-68
2023/05/14 05:40:51;;;;;;;17.75;12.00;;;13.50;99.90;;;;;;5024071;28;20037;-69
2023/05/14 05:43:17;;;;;;;21.33;12.85;;;13.50;99.90;;;;;;5043206;28;20047;-66
2023/05/14 05:45:44;;;;;;;18.17;12.43;;;13.50;99.90;;;;;;5042366;28;20369;-67
2023/05/14 05:48:10;;;;;;;23.45;12.48;;;13.40;99.90;;;;;;5042118;28;20045;-64
2023/05/14 05:50:36;;;;;;;17.33;13.18;;;13.40;99.90;;;;;;5042945;28;20041;-61
2023/05/14 05:53:02;;;;;;;20.40;12.65;;;13.40;99.90;;;;;;5041948;28;20037;-56
2023/05/14 05:55:28;;;;;;;20.40;13.93;;;13.40;99.90;;;;;;5042348;28;20311;-61
2023/05/14 05:57:54;;;;;;;21.02;12.50;;;13.50;99.90;;;;;;5042999;28;20369;-62
2023/05/14 06:00:20;;;;;;;21.23;13.18;;;13.50;99.90;;;;;;5025273;28;20089;-62
2023/05/14 06:02:46;;;;;;;21.67;13.05;;;13.50;99.90;;;;;;5041422;28;20136;-61
2023/05/14 06:05:11;;;;;;;16.33;12.10;;;13.50;99.90;;;;;;5042435;28;20049;-63
2023/05/14 06:07:37;;;;;;;22.45;12.57;;;13.50;99.90;;;;;;5024414;28;20257;-62
2023/05/14 06:10:03;;;;;;;21.00;13.02;;;13.50;99.90;;;;;;5041833;28;20063;-58
2023/05/14 06:12:29;;;;;;;18.90;12.82;;;13.60;99.90;;;;;;5008179;28;20234;-62
2023/05/14 06:14:56;;;;;;;20.13;12.98;;;13.60;99.90;;;;;;5042320;28;20047;-69
2023/05/14 06:17:23;;;;;;;17.88;13.23;;;13.70;99.90;;;;;;5041798;28;20436;-64
2023/05/14 06:19:49;;;;;;;17.67;11.80;;;13.70;99.90;;;;;;5042130;28;20039;-68
2023/05/14 06:22:15;;;;;;;19.85;12.48;;;13.70;99.90;;;;;;5041909;28;20057;-62
2023/05/14 06:24:41;;;;;;;21.90;11.65;;;13.80;99.90;;;;;;5042065;28;20049;-68
2023/05/14 06:27:06;;;;;;;19.98;11.75;;;13.80;99.90;;;;;;5041591;28;20047;-68
2023/05/14 06:29:32;;;;;;;20.00;11.20;;;14.00;99.90;;;;;;5042261;28;20044;-65
2023/05/14 06:32:02;;;;;;;18.70;11.25;;;14.10;99.90;;;;;;5041316;28;20045;-66
2023/05/14 06:34:28;;;;;;;17.08;11.38;;;14.40;99.90;;;;;;5041543;28;20040;-61
2023/05/14 06:36:54;;;;;;;20.20;11.18;;;14.60;99.90;;;;;;5041898;28;20037;-59
2023/05/14 06:39:19;;;;;;;16.67;11.00;;;14.80;99.90;;;;;;5042155;28;20368;-57
2023/05/14 06:41:45;;;;;;;16.60;10.70;;;14.90;99.90;;;;;;5041408;28;20040;-56
2023/05/14 06:44:11;;;;;;;20.65;10.75;;;15.00;99.90;;;;;;5023701;28;20154;-64
2023/05/14 06:46:36;;;;;;;17.30;10.32;;;15.20;99.90;;;;;;5042039;28;20067;-62
2023/05/14 06:49:02;;;;;;;16.88;10.88;;;15.40;99.90;;;;;;5041184;28;20275;-62
2023/05/14 06:51:28;;;;;;;19.63;9.85;;;15.80;99.90;;;;;;5006729;28;20045;-64
2023/05/14 06:53:56;;;;;;;16.48;9.90;;;15.90;99.90;;;;;;5041743;28;20269;-58
2023/05/14 06:56:22;;;;;;;18.15;10.30;;;16.10;99.90;;;;;;5041897;28;20045;-67
2023/05/14 06:58:48;;;;;;;16.08;9.77;;;15.90;99.90;;;;;;5041103;28;20047;-70
2023/05/14 07:01:15;;;;;;;18.98;11.65;;;15.80;99.90;;;;;;5042803;28;20045;-68
2023/05/14 07:03:41;;;;;;;16.17;11.32;;;15.50;99.90;;;;;;5043364;28;20438;-70
2023/05/14 07:06:06;;;;;;;17.33;11.85;;;15.40;99.90;;;;;;5042481;28;20041;-59
2023/05/14 07:08:32;;;;;;;15.55;11.02;;;15.50;99.90;;;;;;5041881;28;20048;-70
2023/05/14 07:10:58;;;;;;;15.45;11.93;;;15.60;99.90;;;;;;5042471;28;20053;-69
2023/05/14 07:13:25;;;;;;;16.67;11.82;;;15.80;99.90;;;;;;5041673;28;20407;-58
2023/05/14 07:15:51;;;;;;;16.38;11.55;;;16.30;99.90;;;;;;5040712;28;20488;-64
2023/05/14 07:18:17;;;;;;;19.90;11.10;;;16.80;99.90;;;;;;5040702;28;20120;-62
2023/05/14 07:20:43;;;;;;;14.98;10.30;;;17.20;99.90;;;;;;5041129;28;20124;-63
2023/05/14 07:23:08;;;;;;;16.73;10.60;;;17.50;99.90;;;;;;5040268;28;20045;-56
2023/05/14 07:25:34;;;;;;;13.73;9.98;;;17.70;99.90;;;;;;5041006;28;20503;-63
2023/05/14 07:28:00;;;;;;;18.23;10.25;;;17.70;99.90;;;;;;5041000;28;20511;-62
2023/05/14 07:30:25;;;;;;;17.63;10.27;;;17.80;99.90;;;;;;5040946;28;20051;-56
2023/05/14 07:32:51;;;;;;;15.35;10.65;;;17.90;99.90;;;;;;5040576;28;20051;-62
2023/05/14 07:35:17;;;;;;;13.38;10.32;;;17.90;99.90;;;;;;5041075;28;20044;-61
2023/05/14 07:37:43;;;;;;;14.65;11.35;;;17.90;99.90;;;;;;5040830;28;20053;-61
2023/05/14 07:40:09;;;;;;;14.30;11.00;;;17.70;99.90;;;;;;5040226;28;20451;-65
2023/05/14 07:42:34;;;;;;;19.60;11.15;;;17.60;99.90;;;;;;5040784;28;20084;-64
2023/05/14 07:45:00;;;;;;;16.98;11.48;;;17.40;99.90;;;;;;5040802;28;20227;-64
2023/05/14 07:47:26;;;;;;;13.13;10.27;;;17.30;99.90;;;;;;5021646;28;20053;-57
2023/05/14 07:49:55;;;;;;;14.80;11.13;;;17.20;99.90;;;;;;5041202;28;20090;-59
2023/05/14 07:52:22;;;;;;;17.88;10.48;;;17.10;99.90;;;;;;5043514;28;20506;-68
2023/05/14 07:54:49;;;;;;;17.85;11.43;;;17.00;99.90;;;;;;5043621;28;20072;-66
2023/05/14 07:57:15;;;;;;;16.23;10.75;;;16.90;99.90;;;;;;5043865;28;20083;-55
2023/05/14 07:59:41;;;;;;;12.77;11.02;;;16.90;99.90;;;;;;5042149;28;20053;-63
2023/05/14 08:02:09;;;;;;;17.85;11.13;;;16.80;99.90;;;;;;5039919;28;20372;-56
2023/05/14 08:04:34;;;;;;;15.50;11.57;;;16.80;99.90;;;;;;5039961;28;20443;-61
2023/05/14 08:07:00;;;;;;;16.70;10.98;;;16.80;99.90;;;;;;5040797;28;20099;-60
2023/05/14 08:09:26;;;;;;;13.95;10.65;;;16.90;99.90;;;;;;5027784;28;20050;-63
2023/05/14 08:11:52;;;;;;;12.48;9.70;;;16.90;99.90;;;;;;5036267;28;20057;-61
2023/05/14 08:14:17;;;;;;;12.93;9.77;;;16.90;99.90;;;;;;5039948;28;20044;-60
2023/05/14 08:16:43;;;;;;;12.10;9.90;;;16.80;99.90;;;;;;5041406;28;20037;-65
2023/05/14 08:19:09;;;;;;;11.00;9.45;;;16.80;99.90;;;;;;5044223;28;20041;-62
2023/05/14 08:21:34;;;;;;;13.73;10.27;;;16.90;99.90;;;;;;5043269;28;20051;-67
2023/05/14 08:24:00;;;;;;;13.40;10.25;;;17.00;99.90;;;;;;5043773;28;20045;-59
2023/05/14 08:26:26;;;;;;;16.23;9.90;;;17.20;99.90;;;;;;5044543;28;20033;-66
2023/05/14 08:28:53;;;;;;;16.25;9.70;;;17.30;99.90;;;;;;5043794;28;20040;-68
2023/05/14 08:31:19;;;;;;;13.50;9.98;;;17.50;99.90;;;;;;5042956;28;20044;-67
2023/05/14 08:33:45;;;;;;;13.63;10.15;;;17.70;99.90;;;;;;5051381;28;20043;-57
2023/05/14 08:36:10;;;;;;;13.15;8.50;;;17.80;99.90;;;;;;5025619;28;20041;-64
2023/05/14 08:38:36;;;;;;;14.68;8.82;;;17.90;99.90;;;;;;5043615;28;20037;-67
2023/05/14 08:41:05;;;;;;;11.15;8.10;;;17.90;99.90;;;;;;5043721;28;20185;-61
2023/05/14 08:43:46;;;;;;;15.88;8.95;;;18.00;99.90;;;;;;5043915;28;20099;-66
2023/05/14 08:46:13;;;;;;;11.45;8.50;;;18.10;99.90;;;;;;5025542;28;20136;-59
2023/05/14 08:48:41;;;;;;;12.52;8.25;;;18.30;99.90;;;;;;5025215;28;20487;-59
2023/05/14 08:51:08;;;;;;;12.00;8.02;;;18.50;99.90;;;;;;5042804;28;20037;-58
2023/05/14 08:53:34;;;;;;;12.18;9.25;;;18.60;99.90;;;;;;5043881;28;20041;-62
2023/05/14 08:56:02;;;;;;;10.02;7.80;;;18.70;99.90;;;;;;5043637;28;20098;-60
2023/05/14 08:58:28;;;;;;;10.40;7.47;;;18.80;99.90;;;;;;5043460;28;20499;-64
2023/05/14 09:00:54;;;;;;;12.88;7.03;;;18.90;99.90;;;;;;5039221;28;20128;-67
2023/05/14 09:03:20;;;;;;;11.65;7.45;;;19.20;99.90;;;;;;5029643;28;20045;-69
2023/05/14 09:05:50;;;;;;;12.38;7.55;;;19.30;99.10;;;;;;5043249;28;20041;-68
2023/05/14 09:08:16;;;;;;;13.70;8.00;;;19.40;98.70;;;;;;5042317;28;20064;-65
2023/05/14 09:10:41;;;;;;;11.77;6.88;;;19.60;98.40;;;;;;5043628;28;20049;-62
2023/05/14 09:13:08;;;;;;;10.00;6.60;;;19.80;98.10;;;;;;5043372;28;20052;-60
2023/05/14 09:15:36;;;;;;;11.10;7.60;;;20.10;97.50;;;;;;5042372;28;20106;-63
2023/05/14 09:18:04;;;;;;;8.60;6.85;;;20.20;97.40;;;;;;5042372;28;20069;-63
2023/05/14 09:20:31;;;;;;;14.65;7.10;;;20.40;97.70;;;;;;5043566;28;20110;-65
2023/05/14 09:22:58;;;;;;;9.27;6.53;;;20.70;98.00;;;;;;5042530;28;20075;-68
2023/05/14 09:25:30;;;;;;;10.13;6.30;;;21.00;97.40;;;;;;5043106;28;20499;-70
2023/05/14 09:27:57;;;;;;;7.18;5.97;;;21.40;96.40;;;;;;5042495;28;20041;-62
2023/05/14 09:30:23;;;;;;;11.70;5.93;;;21.70;97.00;;;;;;5042373;28;20063;-63
2023/05/14 09:32:52;;;;;;;13.13;5.93;;;21.90;96.10;;;;;;5042165;28;20052;-62
2023/05/14 09:35:21;;;;;;;6.63;5.75;;;22.10;95.60;;;;;;5042687;28;20127;-54
2023/05/14 09:37:49;;;;;;;9.30;5.43;;;22.20;95.20;;;;;;5042110;28;20037;-62
2023/05/14 09:40:16;;;;;;;11.73;6.22;;;22.20;94.70;;;;;;5042858;28;20463;-68
2023/05/14 09:42:41;;;;;;;9.32;6.10;;;22.30;95.00;;;;;;5042493;28;20049;-65
2023/05/14 09:45:09;;;;;;;10.25;6.65;;;22.40;95.10;;;;;;5024873;28;20040;-64
2023/05/14 09:47:36;;;;;;;8.38;5.80;;;22.50;94.80;;;;;;5041847;28;20041;-63
2023/05/14 09:50:02;;;;;;;12.02;6.18;;;22.50;93.00;;;;;;5042906;28;20543;-62
2023/05/14 09:52:28;;;;;;;7.80;6.47;;;22.40;92.70;;;;;;5042716;28;20052;-63
2023/05/14 09:54:54;;;;;;;8.13;6.53;;;22.20;92.60;;;;;;5041666;28;20670;-64
2023/05/14 09:57:20;;;;;;;10.85;6.75;;;22.20;91.30;;;;;;5042039;28;20049;-71
2023/05/14 09:59:46;;;;;;;9.48;6.30;;;22.10;92.20;;;;;;5042027;28;20041;-60
2023/05/14 10:02:22;;;;;;;11.40;6.40;;;22.20;92.20;;;;;;5040939;28;20090;-71
2023/05/14 10:04:53;;;;;;;8.57;6.32;;;22.20;91.10;;;;;;5042677;28;20060;-61
2023/05/14 10:07:25;;;;;;;9.07;5.70;;;22.40;92.40;;;;;;5042696;28;20041;-65
2023/05/14 10:10:01;;;;;;;10.65;6.88;;;22.50;92.40;;;;;;5042477;28;20119;-58
2023/05/14 10:12:32;;;;;;;12.43;6.22;;;22.60;91.50;;;;;;5042591;28;20074;-69
2023/05/14 10:15:02;;;;;;;6.65;5.75;;;22.80;91.90;;;;;;5042015;28;20049;-62
2023/05/14 10:17:33;;;;;;;6.03;4.93;;;22.90;91.00;;;;;;5042168;28;20044;-63
2023/05/14 10:20:01;;;;;;;7.32;5.47;;;22.90;90.50;;;;;;5042586;28;20120;-69
2023/05/14 10:22:32;;;;;;;8.38;5.65;;;23.00;88.40;;;;;;5041656;28;20102;-68
2023/05/14 10:24:58;;;;;;;7.30;5.50;;;22.90;86.80;;;;;;5042615;28;20046;-63
2023/05/14 10:27:25;;;;;;;11.52;5.10;;;22.70;88.70;;;;;;5042342;28;20836;-60
2023/05/14 10:29:55;;;;;;;5.97;5.05;;;22.60;89.60;;;;;;5042877;28;20053;-61
2023/05/14 10:32:25;;;;;;;6.90;5.15;;;22.60;88.80;;;;;;5042512;28;20041;-61
2023/05/14 10:34:52;;;;;;;8.70;5.60;;;22.40;88.50;;;;;;5041872;28;20052;-60
2023/05/14 10:37:26;;;;;;;10.10;6.05;;;22.20;89.40;;;;;;5041524;28;20056;-57
2023/05/14 10:39:55;;;;;;;9.30;5.40;;;22.10;90.20;;;;;;5042196;28;20037;-59
2023/05/14 10:42:22;;;;;;;7.28;5.75;;;22.30;90.40;;;;;;5024257;28;20174;-62
2023/05/14 10:45:00;;;;;;;7.05;5.10;;;22.50;90.50;;;;;;5042115;28;20411;-61
2023/05/14 10:47:31;;;;;;;8.80;5.65;;;22.80;87.80;;;;;;5041129;28;20044;-62
2023/05/14 10:49:58;;;;;;;9.27;5.05;;;22.90;87.60;;;;;;5041647;28;20041;-58
2023/05/14 10:52:24;;;;;;;8.05;5.50;;;22.80;89.00;;;;;;5041989;28;20476;-57
2023/05/14 10:54:50;;;;;;;6.30;4.88;;;22.70;86.20;;;;;;5041764;28;20041;-57
2023/05/14 10:57:21;;;;;;;7.10;5.55;;;22.40;87.50;;;;;;5040995;28;20052;-60
2023/05/14 10:59:54;;;;;;;9.75;4.75;;;22.20;86.90;;;;;;5042161;28;20057;-62
2023/05/14 11:02:29;;;;;;;9.93;5.03;;;22.10;88.90;;;;;;5040857;28;20037;-58
2023/05/14 11:04:59;;;;;;;7.80;4.75;;;22.10;89.60;;;;;;5041597;28;20065;-61
2023/05/14 11:07:31;;;;;;;10.50;5.10;;;22.30;87.50;;;;;;5041387;28;20084;-57
2023/05/14 11:10:07;;;;;;;6.25;5.25;;;22.20;88.40;;;;;;5040429;28;20759;-52
2023/05/14 11:12:34;;;;;;;9.63;5.72;;;22.20;87.50;;;;;;5041891;28;20404;-58
2023/05/14 11:15:06;;;;;;;6.10;4.95;;;22.10;88.10;;;;;;5041509;28;20045;-58
2023/05/14 11:17:33;;;;;;;6.15;5.20;;;22.20;89.60;;;;;;5040252;28;20049;-55
2023/05/14 11:19:59;;;;;;;7.95;5.03;;;22.40;90.00;;;;;;5041405;28;20419;-55
2023/05/14 11:22:25;;;;;;;8.45;5.13;;;22.60;90.00;;;;;;5041008;28;20052;-61
2023/05/14 11:24:50;;;;;;;6.90;4.70;;;22.70;89.30;;;;;;5040639;28;20047;-62
2023/05/14 11:27:17;;;;;;;7.65;5.15;;;22.70;90.10;;;;;;5041309;28;20499;-59
2023/05/14 11:29:45;;;;;;;7.22;5.47;;;23.00;90.50;;;;;;5041385;28;20112;-56
2023/05/14 11:32:11;;;;;;;6.85;4.90;;;23.20;90.50;;;;;;5040214;28;20053;-56
2023/05/14 11:34:37;;;;;;;10.27;5.43;;;23.30;90.40;;;;;;5041257;28;20492;-59
2023/05/14 11:37:04;;;;;;;7.45;5.07;;;23.30;90.20;;;;;;5041066;28;20060;-58
2023/05/14 11:39:31;;;;;;;7.80;5.30;;;23.30;90.00;;;;;;5022886;28;20113;-54
2023/05/14 11:42:01;;;;;;;6.97;4.80;;;23.50;89.30;;;;;;5041009;28;20479;-62
2023/05/14 11:44:26;;;;;;;6.75;5.00;;;23.30;89.40;;;;;;5040761;28;20471;-61
2023/05/14 11:47:00;;;;;;;5.40;4.80;;;23.30;89.60;;;;;;5040506;28;20072;-61
2023/05/14 11:49:30;;;;;;;7.35;5.65;;;23.30;89.30;;;;;;5041035;28;20097;-58
2023/05/14 11:52:00;;;;;;;8.63;4.70;;;23.40;88.30;;;;;;5040476;28;20435;-61
2023/05/14 11:54:29;;;;;;;5.65;5.07;;;23.20;89.10;;;;;;5040186;28;20075;-58
2023/05/14 11:56:56;;;;;;;7.65;4.45;;;23.30;89.60;;;;;;5040907;28;20036;-58
2023/05/14 11:59:30;;;;;;;5.45;4.30;;;23.30;86.10;;;;;;5040818;28;20052;-55
2023/05/14 12:01:57;;;;;;;7.45;4.03;;;23.10;84.90;;;;;;5039990;28;20045;-62
2023/05/14 12:04:23;;;;;;;5.35;3.83;;;22.90;86.10;;;;;;5040917;28;20426;-59
2023/05/14 12:06:50;;;;;;;4.70;4.20;;;22.80;87.00;;;;;;5040740;28;20120;-59
2023/05/14 12:09:20;;;;;;;4.90;3.95;;;22.90;85.00;;;;;;5039876;28;20148;-56
2023/05/14 12:11:47;;;;;;;9.63;4.30;;;22.80;84.80;;;;;;5040670;28;20053;-61
2023/05/14 12:14:36;;;;;;;7.53;4.50;;;22.90;86.80;;;;;;5040582;28;20420;-60
2023/05/14 12:17:02;;;;;;;5.15;4.40;;;23.10;86.10;;;;;;5040340;28;20106;-59
2023/05/14 12:19:29;;;;;;;5.43;3.95;;;23.20;87.30;;;;;;5023041;28;20041;-57
2023/05/14 12:21:59;;;;;;;6.53;4.20;;;23.30;82.90;;;;;;5040069;28;20493;-58
2023/05/14 12:24:25;;;;;;;6.95;4.28;;;23.20;84.80;;;;;;5040527;28;20048;-63
2023/05/14 12:26:51;;;;;;;5.93;3.95;;;23.20;86.00;;;;;;5040424;28;20045;-62
2023/05/14 12:29:17;;;;;;;6.70;4.40;;;23.30;85.80;;;;;;5039959;28;20084;-61
2023/05/14 12:31:49;;;;;;;7.22;4.55;;;23.30;85.50;;;;;;5039727;28;20069;-62